Time;durP1;ratioP1;P1;durP2;ratioP2;P2;SDS_P1;SDS_P2;PMS_P1;PMS_P2;Temp;Humidity;BMP_temperature;BMP_pressure;BME280_temperature;BME280_humidity;BME280_pressure;Samples;Min_cycle;Max_cycle;Signal;HPM_P1;HPM_P2
2022/12/05 00:01:25;;;;;;;;;48.00;38.25;;;;;5.03;71.22;101310.94;6282030;22;45330;-85
2022/12/05 00:03:53;;;;;;;;;44.75;34.00;;;;;4.94;70.77;101297.63;6281984;22;45351;-84
2022/12/05 00:06:22;;;;;;;;;28.50;24.50;;;;;4.78;70.62;101278.94;6281690;22;45358;-83
2022/12/05 00:08:51;;;;;;;;;44.00;35.50;;;;;4.97;70.68;101309.06;6282649;22;46729;-83
2022/12/05 00:11:53;;;;;;;;;;;;;;;;;;;;;
2022/12/05 00:17:15;;;;;;;;;38.50;31.75;;;;;4.79;70.89;101306.81;6282643;22;45499;-85
2022/12/05 00:19:50;;;;;;;;;36.00;31.00;;;;;4.77;70.87;101302.38;6283423;22;45339;-83
2022/12/05 00:22:16;;;;;;;;;39.75;35.25;;;;;4.73;70.91;101295.28;6310386;22;45330;-84
2022/12/05 00:24:54;;;;;;;;;;;;;;;;;;;;;
2022/12/05 00:27:31;;;;;;;;;44.50;38.25;;;;;4.74;71.03;101300.56;6306792;22;74031;-85
2022/12/05 00:30:45;;;;;;;;;;;;;;;;;;;;;
2022/12/05 00:33:10;;;;;;;;;48.00;38.75;;;;;4.93;70.71;101335.00;6298937;22;71649;-84
2022/12/05 00:35:36;;;;;;;;;41.00;35.25;;;;;4.75;70.87;101312.75;6279612;22;45471;-84
2022/12/05 00:38:03;;;;;;;;;38.25;32.25;;;;;4.80;70.67;101336.38;6301238;22;45257;-88
2022/12/05 00:40:29;;;;;;;;;46.00;35.25;;;;;4.70;71.06;101316.94;6281417;22;47792;-87
2022/12/05 00:42:55;;;;;;;;;34.50;32.25;;;;;4.84;70.61;101351.28;6284763;22;45806;-86
2022/12/05 00:45:20;;;;;;;;;46.50;38.50;;;;;4.77;70.87;101333.69;6284156;22;45139;-84
2022/12/05 00:47:46;;;;;;;;;40.00;33.50;;;;;4.63;70.89;101310.69;6310938;22;45200;-84
2022/12/05 00:50:11;;;;;;;;;50.00;35.25;;;;;4.66;70.84;101315.09;6284926;22;46520;-87
2022/12/05 00:52:45;;;;;;;;;45.00;37.75;;;;;4.66;70.89;101324.66;6281059;22;45797;-86
2022/12/05 00:55:15;;;;;;;;;46.25;40.25;;;;;4.57;70.70;101302.69;6284796;22;45410;-87
2022/12/05 00:57:41;;;;;;;;;43.25;37.50;;;;;4.76;70.91;101338.00;6280238;22;45510;-87
2022/12/05 01:00:07;;;;;;;;;37.50;30.50;;;;;4.57;71.04;101310.50;6281850;22;47893;-88
2022/12/05 01:02:33;;;;;;;;;41.25;34.25;;;;;4.57;71.05;101305.28;6284885;22;45337;-87
2022/12/05 01:04:59;;;;;;;;;37.00;30.00;;;;;4.67;70.91;101323.81;6282628;22;45335;-87
2022/12/05 01:07:28;;;;;;;;;44.00;36.50;;;;;4.64;70.89;101322.88;6284710;22;45327;-87
2022/12/05 01:09:53;;;;;;;;;39.00;34.75;;;;;4.53;71.17;101311.25;6271886;22;47582;-87
2022/12/05 01:12:19;;;;;;;;;46.25;37.00;;;;;4.70;70.82;101332.59;6283887;22;45468;-87
2022/12/05 01:14:45;;;;;;;;;41.25;37.25;;;;;4.56;71.10;101313.06;6287522;22;45501;-87
2022/12/05 01:17:11;;;;;;;;;40.75;37.00;;;;;4.72;70.83;101335.25;6284886;22;45294;-87
2022/12/05 01:19:42;;;;;;;;;42.00;32.75;;;;;4.68;70.78;101328.16;6310845;22;45462;-86
2022/12/05 01:22:18;;;;;;;;;;;;;;;;;;;;;
2022/12/05 01:25:01;;;;;;;;;;;;;;;;;;;;;
2022/12/05 01:27:47;;;;;;;;;45.25;36.25;;;;;4.78;71.94;101335.44;6313384;22;72057;-87
2022/12/05 01:30:23;;;;;;;;;40.00;33.00;;;;;4.83;71.42;101346.88;6312616;22;45472;-86
2022/12/05 01:32:54;;;;;;;;;41.00;35.75;;;;;4.75;71.22;101330.13;6287433;22;45384;-87
2022/12/05 01:35:23;;;;;;;;;39.50;33.25;;;;;4.94;71.23;101366.34;6284725;22;45239;-86
2022/12/05 01:37:57;;;;;;;;;45.50;37.50;;;;;4.86;71.19;101354.78;6285472;22;45364;-86
2022/12/05 01:40:22;;;;;;;;;34.50;32.50;;;;;4.94;71.16;101375.91;6286024;22;47007;-86
2022/12/05 01:42:53;;;;;;;;;41.50;35.25;;;;;4.80;71.08;101347.69;6310023;22;45644;-86
2022/12/05 01:45:51;;;;;;;;;37.25;31.75;;;;;4.83;70.63;101355.59;6286774;22;45188;-86
2022/12/05 01:48:50;;;;;;;;;44.50;35.75;;;;;4.99;70.90;101392.56;6232024;22;45566;-87
2022/12/05 01:51:18;;;;;;;;;41.25;34.50;;;;;4.87;71.15;101361.81;6286909;22;45411;-87
2022/12/05 01:53:45;;;;;;;;;42.75;37.25;;;;;4.88;71.08;101370.50;6284425;22;45266;-86
2022/12/05 01:56:12;;;;;;;;;45.00;38.50;;;;;5.00;71.15;101396.97;6285830;22;45176;-86
2022/12/05 01:58:50;;;;;;;;;49.00;39.25;;;;;5.00;71.38;101394.38;6285755;22;45401;-87
2022/12/05 02:01:26;;;;;;;;;40.75;36.00;;;;;4.83;71.19;101368.63;6284172;22;47934;-87
2022/12/05 02:04:03;;;;;;;;;48.25;40.00;;;;;4.93;71.38;101395.88;6286945;22;45418;-87
2022/12/05 02:06:38;;;;;;;;;46.75;37.00;;;;;4.98;71.00;101409.09;6283832;22;45332;-86
2022/12/05 02:09:06;;;;;;;;;46.25;36.25;;;;;5.05;71.10;101421.44;6287348;22;45475;-86
2022/12/05 02:11:36;;;;;;;;;43.00;38.50;;;;;4.85;71.39;101377.41;6283613;22;46715;-87
2022/12/05 02:14:55;;;;;;;;;;;;;;;;;;;;;
2022/12/05 02:17:35;;;;;;;;;46.25;37.00;;;;;4.97;71.28;101417.72;6312161;22;68714;-86
2022/12/05 02:20:23;;;;;;;;;32.50;28.25;;;;;4.94;71.04;101415.91;6286785;22;45392;-87
2022/12/05 02:23:11;;;;;;;;;55.75;41.25;;;;;4.83;71.06;101401.66;6313794;22;45364;-87
2022/12/05 02:26:22;;;;;;;;;48.25;39.75;;;;;4.71;71.02;101388.28;6284459;22;46129;-86
2022/12/05 02:28:53;;;;;;;;;39.75;35.75;;;;;4.82;70.99;101415.56;6285361;22;45196;-86
2022/12/05 02:31:49;;;;;;;;;46.25;40.75;;;;;4.67;71.12;101408.13;6284903;22;45381;-87
2022/12/05 02:34:46;;;;;;;;;47.50;40.50;;;;;4.53;71.27;101389.47;6287370;22;46717;-87
2022/12/05 02:37:48;;;;;;;;;45.50;38.50;;;;;4.71;71.08;101423.06;6313385;22;45343;-86
2022/12/05 02:40:23;;;;;;;;;50.25;42.00;;;;;4.49;71.00;101389.31;6289036;22;45365;-87
2022/12/05 02:43:04;;;;;;;;;48.75;40.50;;;;;4.64;71.35;101415.88;6285492;22;45540;-87
2022/12/05 02:45:36;;;;;;;;;54.25;41.75;;;;;4.55;71.04;101402.56;6286826;22;46833;-86
2022/12/05 02:48:03;;;;;;;;;52.75;40.75;;;;;4.58;70.92;101405.25;6287091;22;45383;-86
2022/12/05 02:50:36;;;;;;;;;50.00;41.75;;;;;4.40;71.48;101375.16;6286037;22;45176;-87
2022/12/05 02:53:08;;;;;;;;;49.25;39.00;;;;;4.53;71.48;101405.09;6288711;22;45416;-87
2022/12/05 02:55:34;;;;;;;;;41.00;39.25;;;;;4.58;71.41;101410.47;6285810;22;47959;-87
2022/12/05 02:58:13;;;;;;;;;49.00;38.75;;;;;4.62;71.18;101415.84;6287293;22;45331;-87
2022/12/05 03:00:43;;;;;;;;;50.00;39.25;;;;;4.55;71.21;101403.44;6286986;22;45255;-87
2022/12/05 03:03:21;;;;;;;;;54.50;41.75;;;;;4.59;71.45;101417.44;6285921;22;45565;-87
2022/12/05 03:06:12;;;;;;;;;46.50;39.25;;;;;4.61;71.27;101421.88;6263429;22;45516;-88
2022/12/05 03:08:47;;;;;;;;;55.50;44.00;;;;;4.58;71.72;101418.28;6285500;22;45444;-86
2022/12/05 03:11:24;;;;;;;;;53.50;39.50;;;;;4.46;71.61;101405.72;6287953;22;45412;-87
2022/12/05 03:14:02;;;;;;;;;47.25;41.00;;;;;4.40;71.71;101392.50;6286319;22;45406;-87
2022/12/05 03:17:03;;;;;;;;;48.50;41.75;;;;;4.56;71.58;101425.16;6285347;22;47005;-87
2022/12/05 03:20:09;;;;;;;;;51.25;42.75;;;;;4.36;71.35;101388.06;6287944;22;45388;-86
2022/12/05 03:22:47;;;;;;;;;47.00;38.25;;;;;4.46;71.67;101420.50;6234538;22;45334;-86
2022/12/05 03:25:16;;;;;;;;;50.25;38.25;;;;;4.34;71.36;101402.75;6288089;22;45475;-87
2022/12/05 03:28:11;;;;;;;;;58.50;42.75;;;;;4.32;71.49;101394.88;6285999;22;47844;-85
2022/12/05 03:30:38;;;;;;;;;60.00;43.25;;;;;4.32;71.36;101400.09;6315453;22;45425;-86
2022/12/05 03:34:04;;;;;;;;;;;;;;;;;;;;;
2022/12/05 03:36:42;;;;;;;;;57.25;45.75;;;;;4.37;71.94;101408.06;6311331;22;73445;-87
2022/12/05 03:39:24;;;;;;;;;43.00;37.25;;;;;4.49;71.58;101437.16;6287355;22;48001;-87
2022/12/05 03:42:16;;;;;;;;;50.75;42.00;;;;;4.31;71.53;101407.88;6313306;22;45144;-86
2022/12/05 03:45:09;;;;;;;;;56.00;41.75;;;;;4.54;71.94;101442.47;6287234;22;45235;-86
2022/12/05 03:47:47;;;;;;;;;50.25;41.00;;;;;4.54;71.96;101440.75;6285133;22;45249;-86
2022/12/05 03:50:22;;;;;;;;;56.50;42.25;;;;;4.48;72.04;101445.78;6285925;22;48419;-86
2022/12/05 03:53:02;;;;;;;;;52.00;40.00;;;;;4.37;71.97;101410.66;6286195;22;45464;-86
2022/12/05 03:55:32;;;;;;;;;47.00;33.75;;;;;4.53;71.96;101443.34;6312412;22;45287;-86
2022/12/05 03:58:07;;;;;;;;;55.25;43.75;;;;;4.37;71.95;101421.09;6287155;22;45532;-86
2022/12/05 04:00:41;;;;;;;;;54.50;41.00;;;;;4.39;71.69;101422.03;6310384;22;45383;-87
2022/12/05 04:03:16;;;;;;;;;52.25;43.75;;;;;4.46;71.87;101430.94;6287674;22;45195;-86
2022/12/05 04:05:53;;;;;;;;;54.00;42.50;;;;;4.56;71.64;101446.91;6285394;22;45262;-87
2022/12/05 04:08:29;;;;;;;;;51.25;42.75;;;;;4.51;71.51;101445.88;6286894;22;45524;-88
2022/12/05 04:10:59;;;;;;;;;55.50;41.75;;;;;4.47;71.75;101436.19;6274805;22;47079;-88
2022/12/05 04:13:42;;;;;;;;;50.75;41.25;;;;;4.57;71.79;101458.22;6311509;22;45216;-87
2022/12/05 04:19:22;;;;;;;;;48.00;37.50;;;;;4.60;71.94;101458.34;6312515;22;45398;-87
2022/12/05 04:21:55;;;;;;;;;53.75;43.00;;;;;4.59;72.04;101469.59;6286656;22;46779;-86
2022/12/05 04:28:15;;;;;;;;;51.00;41.25;;;;;4.44;71.40;101446.53;6314139;22;45369;-86
2022/12/05 04:31:15;;;;;;;;;52.75;43.75;;;;;4.56;71.66;101464.28;6131141;23;45750;-86
2022/12/05 04:33:49;;;;;;;;;54.25;42.25;;;;;4.42;71.69;101451.69;6131453;23;45352;-87
2022/12/05 04:36:46;;;;;;;;;49.25;42.50;;;;;4.46;71.77;101454.38;6273472;22;45173;-87
2022/12/05 04:39:35;;;;;;;;;44.75;40.50;;;;;4.52;72.21;101467.66;6285504;22;45202;-87
2022/12/05 04:42:06;;;;;;;;;40.75;33.75;;;;;4.41;71.58;101447.31;6284673;22;45322;-87
2022/12/05 04:44:37;;;;;;;;;55.75;43.25;;;;;4.48;71.94;101470.97;6313668;22;46280;-87
2022/12/05 04:47:08;;;;;;;;;50.50;41.25;;;;;4.40;72.19;101457.69;6314398;22;45203;-88
2022/12/05 04:49:35;;;;;;;;;50.00;44.00;;;;;4.31;71.73;101437.41;6284393;22;45295;-87
2022/12/05 04:52:09;;;;;;;;;50.50;41.25;;;;;4.51;71.83;101477.16;6285909;22;45433;-87
2022/12/05 04:54:41;;;;;;;;;50.00;41.00;;;;;4.52;71.65;101483.28;6284283;22;48110;-85
2022/12/05 04:57:14;;;;;;;;;38.00;31.75;;;;;4.52;71.94;101488.50;6284490;22;45192;-87
2022/12/05 04:59:42;;;;;;;;;44.50;36.75;;;;;4.30;71.78;101446.06;6284537;22;45251;-87
2022/12/05 05:02:11;;;;;;;;;52.50;39.25;;;;;4.31;71.60;101460.00;6313075;22;45507;-87
2022/12/05 05:04:43;;;;;;;;;42.25;37.00;;;;;4.42;71.69;101484.69;6284041;22;47043;-87
2022/12/05 05:07:11;;;;;;;;;52.75;40.25;;;;;4.39;71.72;101482.88;6312780;22;45343;-87
2022/12/05 05:09:37;;;;;;;;;51.00;38.25;;;;;4.42;71.93;101484.69;6311305;22;45385;-87
2022/12/05 05:12:06;;;;;;;;;51.25;42.50;;;;;4.32;71.92;101467.84;6284802;22;45173;-86
2022/12/05 05:14:32;;;;;;;;;46.50;36.75;;;;;4.34;71.62;101466.19;6313419;22;45372;-87
2022/12/05 05:16:58;;;;;;;;;54.50;41.25;;;;;4.49;71.66;101497.13;6312535;22;45206;-87
2022/12/05 05:19:23;;;;;;;;;50.00;41.00;;;;;4.50;72.27;101492.78;6287110;22;45392;-86
2022/12/05 05:21:50;;;;;;;;;53.25;44.00;;;;;4.52;71.76;101496.31;6312450;22;45477;-88
2022/12/05 05:24:15;;;;;;;;;49.75;40.50;;;;;4.54;72.32;101498.13;6286496;22;47248;-86
2022/12/05 05:26:43;;;;;;;;;43.75;35.50;;;;;4.45;71.63;101484.78;6284452;22;45362;-87
2022/12/05 05:29:10;;;;;;;;;47.00;40.25;;;;;4.49;71.98;101486.69;6285575;22;45188;-87
2022/12/05 05:31:37;;;;;;;;;47.50;37.75;;;;;4.56;72.11;101504.28;6311352;22;45381;-87
2022/12/05 05:34:02;;;;;;;;;54.00;41.25;;;;;4.51;71.76;101491.94;6312357;22;45473;-86
2022/12/05 05:36:28;;;;;;;;;44.25;38.00;;;;;4.39;71.92;101458.53;6285480;22;45285;-87
2022/12/05 05:38:56;;;;;;;;;43.50;36.25;;;;;4.40;72.14;101468.09;6284323;22;45378;-87
2022/12/05 05:41:28;;;;;;;;;52.25;40.50;;;;;4.47;72.23;101485.75;6285702;22;45279;-87
2022/12/05 05:44:07;;;;;;;;;46.25;38.00;;;;;4.39;72.19;101477.66;6284115;22;47118;-87
2022/12/05 05:46:36;;;;;;;;;53.75;41.00;;;;;4.47;72.01;101490.06;6286191;22;45196;-87
2022/12/05 05:49:02;;;;;;;;;50.75;41.25;;;;;4.41;72.13;101483.81;6284144;22;45403;-86
2022/12/05 05:51:29;;;;;;;;;46.75;39.50;;;;;4.40;71.69;101483.75;6284478;22;45451;-89
2022/12/05 05:54:05;;;;;;;;;46.75;39.25;;;;;4.45;71.75;101497.81;6284851;22;47269;-87
2022/12/05 05:56:30;;;;;;;;;39.50;34.75;;;;;4.58;71.95;101526.09;6283351;22;45300;-88
2022/12/05 05:58:59;;;;;;;;;55.75;41.25;;;;;4.59;71.58;101532.19;6314107;22;45244;-88
2022/12/05 06:01:28;;;;;;;;;51.00;37.75;;;;;4.51;71.66;101512.78;6283894;22;45350;-87
2022/12/05 06:03:56;;;;;;;;;42.25;37.75;;;;;4.57;71.99;101529.53;6285704;22;46824;-86
2022/12/05 06:06:23;;;;;;;;;49.25;42.25;;;;;4.42;71.64;101502.94;6282868;22;45362;-88
2022/12/05 06:08:48;;;;;;;;;43.75;38.00;;;;;4.55;71.53;101538.13;6284850;22;45262;-88
2022/12/05 06:11:23;;;;;;;;;50.00;40.00;;;;;4.38;72.00;101506.25;6282253;22;45836;-88
2022/12/05 06:13:51;;;;;;;;;54.25;40.50;;;;;4.38;71.71;101506.25;6312485;22;45395;-88
2022/12/05 06:16:18;;;;;;;;;52.25;40.25;;;;;4.35;71.73;101498.34;6282972;22;45263;-87
2022/12/05 06:18:46;;;;;;;;;52.50;40.00;;;;;4.37;71.65;101505.38;6311851;22;45270;-89
2022/12/05 06:21:14;;;;;;;;;39.00;32.50;;;;;4.36;71.76;101511.44;6282396;22;45461;-86
2022/12/05 06:23:49;;;;;;;;;44.25;35.25;;;;;4.53;71.92;101537.19;6281822;22;46811;-87
2022/12/05 06:26:18;;;;;;;;;50.25;40.00;;;;;4.52;71.95;101531.09;6283786;22;45392;-88
2022/12/05 06:28:58;;;;;;;;;48.00;38.25;;;;;4.47;71.60;101523.97;6281994;22;45374;-87
2022/12/05 06:31:54;;;;;;;;;;;;;;;;;;;;;
2022/12/05 06:35:24;;;;;;;;;;;;;;;;;;;;;
2022/12/05 06:38:21;;;;;;;;;52.00;42.25;;;;;4.40;71.47;101534.16;6306649;22;71694;-86
2022/12/05 06:41:16;;;;;;;;;;;;;;;;;;;;;
2022/12/05 06:44:31;;;;;;;;;52.25;40.75;;;;;4.61;71.99;101564.41;6308720;22;72593;-87
2022/12/05 06:50:07;;;;;;;;;43.25;38.75;;;;;4.42;72.12;101544.66;6310047;22;45381;-86
2022/12/05 06:52:59;;;;;;;;;;;;;;;;;;;;;
2022/12/05 06:55:31;;;;;;;;;47.50;38.00;;;;;4.63;71.86;101588.81;6311046;22;72825;-86
2022/12/05 06:58:00;;;;;;;;;45.50;41.00;;;;;4.56;72.12;101576.41;6270894;22;46797;-86
2022/12/05 07:03:17;;;;;;;;;55.50;41.75;;;;;4.59;71.41;101585.22;6310821;22;45250;-87
2022/12/05 07:06:01;;;;;;;;;;;;;;;;;;;;;
2022/12/05 07:09:25;;;;;;;;;;;;;;;;;;;;;
2022/12/05 07:15:58;;;;;;;;;53.50;41.25;;;;;4.45;71.79;101602.09;6183355;23;45196;-87
2022/12/05 07:18:47;;;;;;;;;47.75;41.25;;;;;4.42;71.36;101608.09;6161225;23;45643;-91
2022/12/05 07:34:54;;;;;;;;;;;;;;;;;;;;;
2022/12/05 07:37:41;;;;;;;;;;;;;;;;;;;;;
2022/12/05 07:43:57;;;;;;;;;;;;;;;;;;;;;
2022/12/05 07:46:25;;;;;;;;;55.50;45.00;;;;;4.33;71.47;101605.19;6182811;23;74287;-89
2022/12/05 07:48:51;;;;;;;;;56.25;42.50;;;;;4.44;71.96;101631.63;6229185;22;45341;-85
2022/12/05 07:51:20;;;;;;;;;59.25;44.75;;;;;4.36;71.76;101613.09;6284185;22;45365;-85
2022/12/05 07:54:00;;;;;;;;;53.75;42.75;;;;;4.28;72.03;101598.03;6311211;22;45227;-85
2022/12/05 07:56:28;;;;;;;;;53.25;41.25;;;;;4.43;72.19;101625.50;6311508;22;46158;-85
2022/12/05 07:59:00;;;;;;;;;56.25;44.75;;;;;4.27;71.57;101609.28;6282528;22;45073;-85
2022/12/05 08:01:31;;;;;;;;;58.25;42.00;;;;;4.41;71.54;101634.09;6284368;22;45453;-85
2022/12/05 08:03:58;;;;;;;;;40.75;36.50;;;;;4.26;71.47;101605.78;6282529;22;45379;-86
2022/12/05 08:06:27;;;;;;;;;55.25;43.25;;;;;4.42;71.93;101652.41;6284308;22;47588;-86
2022/12/05 08:09:00;;;;;;;;;51.25;42.50;;;;;4.45;71.73;101655.97;6283094;22;45219;-86
2022/12/05 08:38:07;;;;;;;;;58.00;45.25;;;;;4.38;71.90;101662.66;6278197;22;45193;-86
2022/12/05 08:41:09;;;;;;;;;60.50;45.75;;;;;4.30;72.37;101651.97;6250935;22;47627;-83
2022/12/05 09:05:22;;;;;;;;;;;;;;;;;;;;;
2022/12/05 09:11:49;;;;;;;;;51.75;41.00;;;;;4.47;72.12;101691.69;5841645;24;45227;-82
2022/12/05 09:14:33;;;;;;;;;60.25;46.25;;;;;4.30;72.22;101667.59;5874507;24;45348;-86
2022/12/05 09:21:06;;;;;;;;;62.75;48.00;;;;;4.47;71.72;101693.44;5846367;24;45620;-84
2022/12/05 09:23:48;;;;;;;;;59.00;47.50;;;;;4.37;72.08;101669.63;5950406;23;45486;-80
2022/12/05 09:26:46;;;;;;;;;65.75;47.50;;;;;4.50;71.67;101683.97;6042518;23;45461;-83
2022/12/05 09:33:31;;;;;;;;;58.75;47.00;;;;;4.60;71.69;101698.25;6054154;23;45392;-82
2022/12/05 09:36:04;;;;;;;;;53.50;42.00;;;;;4.56;71.42;101688.53;6061551;23;45238;-84
2022/12/05 09:39:09;;;;;;;;;47.00;36.75;;;;;4.51;71.44;101688.34;6129518;23;45365;-82
2022/12/05 10:20:15;;;;;;;;;61.50;48.00;;;;;4.89;70.52;101733.16;5900122;23;45426;-83
2022/12/05 10:22:47;;;;;;;;;65.75;49.00;;;;;4.87;70.71;101729.66;6072601;23;45469;-83
2022/12/05 10:25:18;;;;;;;;;59.75;41.25;;;;;4.95;70.23;101740.34;6240205;22;45304;-82
2022/12/05 10:27:51;;;;;;;;;55.25;44.75;;;;;4.92;70.16;101720.25;6217319;22;45333;-88
2022/12/05 10:30:22;;;;;;;;;57.75;45.50;;;;;5.00;69.94;101733.56;6223454;22;45326;-86
2022/12/05 10:33:14;;;;;;;;;56.75;43.50;;;;;4.97;70.28;101729.13;6221881;22;45417;-88
2022/12/05 10:36:08;;;;;;;;;66.00;46.50;;;;;4.87;70.16;101698.34;6247073;22;46300;-84
2022/12/05 10:43:40;;;;;;;;;;;;;;;;;;;;;
2022/12/05 11:04:02;;;;;;;;;57.00;45.00;;;;;5.27;69.25;101713.63;5892816;23;46144;-82
2022/12/05 11:07:17;;;;;;;;;57.25;46.50;;;;;5.29;69.34;101717.19;5979549;23;45187;-82
2022/12/05 11:10:09;;;;;;;;;61.50;49.25;;;;;5.21;68.59;101703.00;6213603;22;45304;-80
2022/12/05 11:12:47;;;;;;;;;63.25;48.50;;;;;5.35;68.81;101733.91;6242767;22;45625;-81
2022/12/05 11:15:36;;;;;;;;;56.25;44.50;;;;;5.33;68.74;101725.13;6219694;22;47002;-81
2022/12/05 11:18:28;;;;;;;;;56.50;43.75;;;;;5.14;68.66;101697.50;6218436;22;45403;-81
2022/12/05 11:21:24;;;;;;;;;60.75;48.25;;;;;5.27;68.48;101731.91;6227525;22;45402;-82
2022/12/05 11:23:57;;;;;;;;;60.75;45.00;;;;;5.09;68.58;101702.56;6218518;22;45420;-81
2022/12/05 11:26:41;;;;;;;;;56.50;44.25;;;;;5.11;68.67;101713.06;6218651;22;45356;-80
2022/12/05 11:29:42;;;;;;;;;57.75;48.75;;;;;5.28;68.53;101738.88;6235330;22;45245;-80
2022/12/05 11:33:06;;;;;;;;;57.25;45.00;;;;;5.26;68.57;101747.50;6219427;22;45483;-83
2022/12/05 11:35:48;;;;;;;;;63.50;49.25;;;;;5.09;68.84;101721.72;6233093;22;45409;-80
2022/12/05 11:41:37;;;;;;;;;;;;;;;;;;;;;
2022/12/05 11:44:46;;;;;;;;;46.50;38.25;;;;;5.20;68.90;101739.47;6244770;22;68525;-82
2022/12/05 11:47:33;;;;;;;;;58.50;45.50;;;;;5.19;68.87;101737.72;6247572;22;45483;-83
2022/12/05 11:50:51;;;;;;;;;61.50;48.00;;;;;5.11;69.07;101719.19;6231251;22;46872;-82
2022/12/05 11:53:38;;;;;;;;;63.00;46.75;;;;;5.20;69.43;101731.66;6064456;23;45291;-82
2022/12/05 11:56:43;;;;;;;;;53.75;44.75;;;;;5.24;69.02;101730.94;6239854;22;45300;-81
2022/12/05 11:59:59;;;;;;;;;46.00;37.00;;;;;5.16;68.95;101703.66;6229315;22;45493;-80
2022/12/05 12:03:00;;;;;;;;;58.75;45.25;;;;;5.33;69.14;101725.13;6104745;22;45521;-81
2022/12/05 12:06:13;;;;;;;;;59.50;46.25;;;;;5.22;69.08;101698.66;6247944;22;45308;-81
2022/12/05 12:09:13;;;;;;;;;62.00;47.00;;;;;5.41;69.16;101721.91;6216924;22;45137;-80
2022/12/05 12:11:59;;;;;;;;;60.75;49.00;;;;;5.44;69.07;101726.34;6219317;22;45351;-81
2022/12/05 12:14:51;;;;;;;;;57.25;42.00;;;;;5.33;68.83;101712.94;6245742;22;45474;-82
2022/12/05 12:17:43;;;;;;;;;56.75;44.75;;;;;5.31;68.86;101683.28;6220412;22;45315;-81
2022/12/05 12:20:36;;;;;;;;;61.25;47.50;;;;;5.55;68.68;101716.25;6217823;22;45364;-82
2022/12/05 12:23:29;;;;;;;;;58.25;45.50;;;;;5.60;68.63;101714.69;6218971;22;45371;-81
2022/12/05 12:26:32;;;;;;;;;57.75;44.75;;;;;5.49;68.50;101702.16;6218588;22;46620;-81
2022/12/05 12:29:34;;;;;;;;;;;;;;;;;;;;;
2022/12/05 12:32:34;;;;;;;;;53.25;41.25;;;;;5.47;68.23;101696.00;6239080;22;69651;-79
2022/12/05 12:35:38;;;;;;;;;;;;;;;;;;;;;
2022/12/05 12:38:50;;;;;;;;;60.25;44.25;;;;;5.48;68.28;101692.56;6293811;22;75369;-80
2022/12/05 12:41:58;;;;;;;;;54.50;44.75;;;;;5.64;68.21;101724.38;6233332;22;45696;-80
2022/12/05 12:44:49;;;;;;;;;61.50;45.50;;;;;5.65;68.49;101718.34;6261635;22;45475;-80
2022/12/05 12:47:53;;;;;;;;;56.50;42.50;;;;;5.55;68.42;101701.47;6280453;22;45521;-80
2022/12/05 12:50:25;;;;;;;;;53.75;42.25;;;;;5.55;68.29;101696.25;6279511;22;46644;-80
2022/12/05 12:53:39;;;;;;;;;51.00;39.50;;;;;5.66;68.27;101718.38;6280225;22;45439;-80
2022/12/05 12:56:21;;;;;;;;;61.50;46.50;;;;;5.71;68.49;101727.25;6279880;22;45416;-81
2022/12/05 12:59:14;;;;;;;;;57.50;45.25;;;;;5.72;68.64;101723.81;6308775;22;45273;-79
2022/12/05 13:02:02;;;;;;;;;;;;;;;;;;;;;
2022/12/05 13:05:03;;;;;;;;;58.00;43.75;;;;;5.71;68.19;101727.25;6307627;22;71007;-81
2022/12/05 13:07:48;;;;;;;;;58.25;44.50;;;;;5.63;68.16;101713.06;6271339;22;45260;-80
2022/12/05 13:11:08;;;;;;;;;54.50;44.00;;;;;5.68;68.07;101723.66;6280721;22;45306;-82
2022/12/05 13:17:20;;;;;;;;;55.25;44.75;;;;;5.54;68.08;101694.47;6265132;22;45411;-80
2022/12/05 13:20:01;;;;;;;;;59.25;46.50;;;;;5.53;67.98;101690.06;6277664;22;45346;-80
2022/12/05 13:22:39;;;;;;;;;50.25;42.75;;;;;5.66;67.86;101712.25;6279731;22;45252;-82
2022/12/05 13:25:21;;;;;;;;;46.00;39.75;;;;;5.65;67.56;101702.66;6278396;22;46943;-80
2022/12/05 13:28:44;;;;;;;;;59.50;46.75;;;;;5.50;68.24;101671.72;6279135;22;45345;-80
2022/12/05 13:31:49;;;;;;;;;;;;;;;;;;;;;
2022/12/05 13:34:49;;;;;;;;;51.75;40.75;;;;;5.75;68.02;101704.72;6306385;22;72395;-80
2022/12/05 13:44:41;;;;;;;;;53.75;39.25;;;;;5.70;67.48;101696.75;6307585;22;45318;-82
2022/12/05 13:48:30;;;;;;;;;56.75;41.75;;;;;5.73;67.45;101709.00;6263088;22;45291;-79
2022/12/05 13:57:46;;;;;;;;;51.25;39.25;;;;;5.64;67.52;101704.41;6211061;22;45493;-80
2022/12/05 14:01:01;;;;;;;;;;;;;;;;;;;;;
2022/12/05 14:04:03;;;;;;;;;57.00;45.25;;;;;5.62;67.65;101706.06;6210732;22;74279;-79
2022/12/05 14:07:15;;;;;;;;;56.00;44.25;;;;;5.60;67.49;101706.84;6266062;22;45466;-80
2022/12/05 14:27:29;;;;;;;;;58.75;44.00;;;;;5.53;67.67;101709.28;6210443;22;45433;-83
2022/12/05 14:30:05;;;;;;;;;50.50;41.25;;;;;5.55;67.72;101719.75;6276775;22;46622;-83
2022/12/05 14:33:01;;;;;;;;;55.50;41.75;;;;;5.43;67.68;101701.09;6279834;22;45391;-83
2022/12/05 14:36:17;;;;;;;;;;;;;;;;;;;;;
2022/12/05 14:39:25;;;;;;;;;56.50;43.50;;;;;5.43;67.67;101711.53;6090613;23;74548;-84
2022/12/05 14:43:06;;;;;;;;;55.25;42.00;;;;;5.46;67.78;101717.75;6095388;23;47978;-83
2022/12/05 14:46:05;;;;;;;;;;;;;;;;;;;;;
2022/12/05 14:48:46;;;;;;;;;54.00;42.25;;;;;5.28;67.80;101683.19;6244184;22;68166;-85
2022/12/05 14:51:32;;;;;;;;;54.25;40.00;;;;;5.42;67.92;101721.06;6216996;22;45387;-83
2022/12/05 14:54:17;;;;;;;;;52.75;41.75;;;;;5.52;68.11;101735.31;6192374;22;46296;-81
2022/12/05 14:56:51;;;;;;;;;45.25;40.50;;;;;5.45;68.05;101715.06;6218195;22;45442;-83
2022/12/05 14:59:31;;;;;;;;;47.50;43.00;;;;;5.54;67.72;101731.06;6218714;22;45224;-79
2022/12/05 15:02:00;;;;;;;;;49.25;39.00;;;;;5.43;67.94;101708.94;6246397;22;45611;-79
2022/12/05 15:04:45;;;;;;;;;38.00;35.25;;;;;5.43;68.14;101712.41;6243921;22;47451;-81
2022/12/05 15:07:29;;;;;;;;;46.25;40.75;;;;;5.44;67.55;101710.69;6244872;22;45338;-83
2022/12/05 15:09:59;;;;;;;;;38.25;33.75;;;;;5.63;67.79;101739.16;6218202;22;45394;-84
2022/12/05 15:12:40;;;;;;;;;44.75;37.00;;;;;5.57;67.94;101723.31;6217898;22;45721;-84
2022/12/05 15:15:23;;;;;;;;;40.75;35.50;;;;;5.64;67.54;101740.97;6217254;22;45423;-83
2022/12/05 15:17:54;;;;;;;;;46.00;37.25;;;;;5.52;67.62;101723.16;6217885;22;45292;-83
2022/12/05 15:20:38;;;;;;;;;42.00;36.50;;;;;5.45;67.56;101718.59;6218142;22;45402;-80
2022/12/05 15:23:04;;;;;;;;;45.50;36.00;;;;;5.49;67.35;101716.94;6217284;22;45364;-79
2022/12/05 15:25:31;;;;;;;;;48.50;40.00;;;;;5.63;67.54;101743.50;6246239;22;45678;-78
2022/12/05 15:28:18;;;;;;;;;43.25;37.50;;;;;5.68;67.46;101761.09;6245373;22;45387;-78
2022/12/05 15:30:54;;;;;;;;;44.50;36.50;;;;;5.70;67.36;101763.78;6219684;22;45375;-78
2022/12/05 15:33:27;;;;;;;;;47.50;35.25;;;;;5.53;67.20;101735.41;6219541;22;45687;-78
2022/12/05 15:35:55;;;;;;;;;47.25;38.50;;;;;5.61;67.31;101740.84;6243356;22;47067;-77
2022/12/05 15:38:34;;;;;;;;;38.25;33.00;;;;;5.61;67.31;101737.34;6244802;22;45358;-78
2022/12/05 15:40:59;;;;;;;;;43.75;39.00;;;;;5.66;67.27;101744.50;6249573;22;45197;-83
2022/12/05 15:43:31;;;;;;;;;48.50;39.75;;;;;5.73;67.45;101748.22;6250118;22;45565;-84
2022/12/05 15:46:26;;;;;;;;;44.50;37.00;;;;;5.60;67.41;101720.78;6249894;22;48036;-79
2022/12/05 15:48:56;;;;;;;;;40.25;36.00;;;;;5.56;67.26;101711.09;6249338;22;45296;-84
2022/12/05 15:51:35;;;;;;;;;45.25;39.00;;;;;5.61;67.28;101719.06;6249604;22;45297;-80
2022/12/05 15:54:06;;;;;;;;;40.75;36.50;;;;;5.67;67.70;101729.72;6249593;22;45413;-80
2022/12/05 15:56:45;;;;;;;;;46.00;37.25;;;;;5.52;67.23;101706.59;6250146;22;47001;-79
2022/12/05 15:59:25;;;;;;;;;45.75;37.50;;;;;5.62;67.54;101728.69;6277682;22;45242;-85
2022/12/05 16:01:58;;;;;;;;;45.00;36.00;;;;;5.66;67.23;101741.88;6247145;22;45365;-79
2022/12/05 16:04:29;;;;;;;;;41.50;35.25;;;;;5.68;67.24;101749.78;6248595;22;45620;-79
2022/12/05 16:06:59;;;;;;;;;46.00;40.00;;;;;5.69;67.39;101742.00;6276267;22;45377;-80
2022/12/05 16:09:30;;;;;;;;;42.75;38.00;;;;;5.62;67.28;101749.59;6248548;22;45312;-80
2022/12/05 16:12:00;;;;;;;;;49.75;39.00;;;;;5.62;67.21;101747.84;6249691;22;45339;-79
2022/12/05 16:14:33;;;;;;;;;46.50;41.50;;;;;5.65;67.21;101761.00;6276328;22;45286;-79